Time;durP1;ratioP1;P1;durP2;ratioP2;P2;SDS_P1;SDS_P2;PMS_P1;PMS_P2;Temp;Humidity;BMP_temperature;BMP_pressure;BME280_temperature;BME280_humidity;BME280_pressure;Samples;Min_cycle;Max_cycle;Signal;HPM_P1;HPM_P2
2021/01/23 00:02:25;;;;;;;0.40;0.40;;;6.70;99.90;;;;;;5011002;28;20171;-72
2021/01/23 00:04:51;;;;;;;0.28;0.28;;;6.70;99.90;;;;;;5010917;28;20270;-72
2021/01/23 00:07:17;;;;;;;0.30;0.30;;;6.70;99.90;;;;;;5026875;28;20186;-72
2021/01/23 00:09:42;;;;;;;0.57;0.57;;;6.80;99.90;;;;;;5030497;28;20699;-73
2021/01/23 00:12:08;;;;;;;0.20;0.20;;;6.80;99.90;;;;;;5030592;28;20196;-72
2021/01/23 00:14:34;;;;;;;1.65;1.55;;;6.90;99.90;;;;;;5030563;28;20166;-72
2021/01/23 00:17:00;;;;;;;0.20;0.20;;;6.80;99.90;;;;;;5030282;28;20216;-72
2021/01/23 00:19:26;;;;;;;0.70;0.70;;;6.80;99.90;;;;;;5030329;28;20254;-72
2021/01/23 00:21:52;;;;;;;0.38;0.38;;;6.80;99.90;;;;;;5030156;28;20162;-73
2021/01/23 00:24:18;;;;;;;0.20;0.20;;;6.80;99.90;;;;;;5028867;28;20241;-72
2021/01/23 00:26:45;;;;;;;0.10;0.10;;;6.80;99.90;;;;;;5016894;28;20194;-72
2021/01/23 00:29:15;;;;;;;0.10;0.10;;;6.80;99.90;;;;;;5029443;28;20564;-71
2021/01/23 00:31:42;;;;;;;0.65;0.63;;;6.70;99.90;;;;;;5029311;28;20185;-71
2021/01/23 00:34:11;;;;;;;0.28;0.28;;;6.80;99.90;;;;;;5045174;28;20202;-71
2021/01/23 00:36:37;;;;;;;0.80;0.63;;;6.80;99.90;;;;;;5029939;28;20251;-72
2021/01/23 00:39:05;;;;;;;0.82;0.82;;;6.80;99.90;;;;;;5029824;28;20193;-72
2021/01/23 00:41:32;;;;;;;0.43;0.43;;;6.90;99.90;;;;;;5029924;28;20174;-72
2021/01/23 00:43:58;;;;;;;0.57;0.57;;;6.90;99.90;;;;;;5029756;28;20249;-71
2021/01/23 00:46:24;;;;;;;1.40;1.40;;;6.80;99.90;;;;;;5029725;28;20212;-72
2021/01/23 00:48:50;;;;;;;0.10;0.10;;;6.80;99.90;;;;;;5029763;28;20182;-71
2021/01/23 00:51:17;;;;;;;0.35;0.35;;;6.80;99.90;;;;;;5029608;28;20190;-71
2021/01/23 00:53:45;;;;;;;0.63;0.63;;;6.80;99.90;;;;;;5028268;28;20170;-71
2021/01/23 00:56:11;;;;;;;0.10;0.10;;;6.80;99.90;;;;;;5028261;28;20579;-72
2021/01/23 00:58:38;;;;;;;0.88;0.88;;;6.70;99.90;;;;;;5028118;28;20174;-71
2021/01/23 01:01:05;;;;;;;0.20;0.20;;;6.70;99.90;;;;;;5029427;28;20194;-72
2021/01/23 01:03:32;;;;;;;0.75;0.75;;;6.70;99.90;;;;;;5029464;28;20150;-71
2021/01/23 01:05:58;;;;;;;0.80;0.80;;;6.70;99.90;;;;;;5029424;28;20247;-71
2021/01/23 01:08:24;;;;;;;0.32;0.32;;;6.60;99.90;;;;;;5029411;28;20155;-71
2021/01/23 01:10:50;;;;;;;0.50;0.32;;;6.60;99.90;;;;;;5029204;28;20192;-73
2021/01/23 01:13:18;;;;;;;0.05;0.05;;;6.60;99.90;;;;;;5044426;28;20193;-73
2021/01/23 01:15:44;;;;;;;0.68;0.68;;;6.50;99.90;;;;;;5029224;28;20224;-71
2021/01/23 01:18:10;;;;;;;1.25;1.20;;;6.50;99.90;;;;;;5029220;28;20169;-74
2021/01/23 01:20:36;;;;;;;0.10;0.10;;;6.50;99.90;;;;;;5029087;28;20209;-73
2021/01/23 01:23:01;;;;;;;0.40;0.40;;;6.60;99.90;;;;;;5044280;28;20170;-73
2021/01/23 01:25:27;;;;;;;0.13;0.13;;;6.60;99.90;;;;;;5029093;28;20190;-73
2021/01/23 01:27:53;;;;;;;0.13;0.13;;;6.60;99.90;;;;;;5029043;28;20154;-73
2021/01/23 01:30:21;;;;;;;1.20;1.13;;;6.60;99.90;;;;;;5028823;28;20169;-73
2021/01/23 01:32:47;;;;;;;0.35;0.30;;;6.60;99.90;;;;;;5029125;28;20660;-74
2021/01/23 01:35:13;;;;;;;0.20;0.20;;;6.60;99.90;;;;;;5028998;28;20240;-73
2021/01/23 01:37:39;;;;;;;0.30;0.30;;;6.50;99.90;;;;;;5028942;28;20158;-73
2021/01/23 01:40:06;;;;;;;0.77;0.77;;;6.50;99.90;;;;;;5029052;28;20336;-73
2021/01/23 01:42:32;;;;;;;0.38;0.38;;;6.40;99.90;;;;;;5028790;28;20214;-74
2021/01/23 01:44:59;;;;;;;0.85;0.75;;;6.40;99.90;;;;;;5028700;28;20261;-74
2021/01/23 01:47:25;;;;;;;0.10;0.10;;;6.50;99.90;;;;;;5029097;28;20650;-73
2021/01/23 01:49:51;;;;;;;0.65;0.60;;;6.50;99.90;;;;;;5028965;28;20178;-73
2021/01/23 01:52:18;;;;;;;0.10;0.10;;;6.50;99.90;;;;;;5029069;28;20169;-73
2021/01/23 01:54:44;;;;;;;0.98;0.93;;;6.50;99.90;;;;;;5043983;28;20178;-74
2021/01/23 01:57:10;;;;;;;0.68;0.68;;;6.50;99.90;;;;;;5028626;28;20249;-73
2021/01/23 01:59:36;;;;;;;0.57;0.57;;;6.60;99.90;;;;;;5028426;28;20712;-73
2021/01/23 02:02:33;;;;;;;4.65;2.92;;;6.60;99.90;;;;;;5043684;28;20178;-73
2021/01/23 02:05:20;;;;;;;0.30;0.30;;;6.60;99.90;;;;;;5043624;28;20184;-73
2021/01/23 02:08:24;;;;;;;1.92;1.73;;;6.60;99.90;;;;;;5028584;28;20165;-73
2021/01/23 02:11:08;;;;;;;0.63;0.63;;;6.70;99.90;;;;;;5028272;28;20225;-74
2021/01/23 02:13:40;;;;;;;0.85;0.85;;;6.80;99.90;;;;;;5043515;28;20177;-73
2021/01/23 02:16:17;;;;;;;1.10;0.95;;;6.80;99.90;;;;;;5028409;28;20205;-73
2021/01/23 02:19:08;;;;;;;0.80;0.80;;;6.80;99.90;;;;;;5028497;28;20158;-73
2021/01/23 02:22:02;;;;;;;0.30;0.30;;;6.70;99.90;;;;;;5028144;28;20197;-73
2021/01/23 02:24:30;;;;;;;1.35;1.23;;;6.80;99.90;;;;;;5043593;28;20512;-73
2021/01/23 02:27:06;;;;;;;1.70;1.60;;;6.80;99.90;;;;;;5027197;28;20222;-74
2021/01/23 02:29:54;;;;;;;0.10;0.10;;;6.80;99.90;;;;;;5028188;28;20219;-73
2021/01/23 02:32:22;;;;;;;0.10;0.10;;;6.80;99.90;;;;;;5023768;28;20212;-73
2021/01/23 02:34:49;;;;;;;0.10;0.10;;;6.70;99.90;;;;;;5026967;28;20178;-73
2021/01/23 02:37:16;;;;;;;3.10;0.65;;;6.80;99.90;;;;;;5028160;28;20264;-73
2021/01/23 02:39:43;;;;;;;1.75;1.65;;;6.80;99.90;;;;;;5028235;28;20194;-73
2021/01/23 02:42:09;;;;;;;0.40;0.40;;;6.80;99.90;;;;;;5027973;28;20213;-73
2021/01/23 02:44:35;;;;;;;1.02;1.02;;;6.80;99.90;;;;;;5028018;28;20640;-73
2021/01/23 02:47:01;;;;;;;0.43;0.43;;;6.80;99.90;;;;;;5028056;28;20201;-73
2021/01/23 02:49:27;;;;;;;0.82;0.82;;;6.70;99.90;;;;;;5028076;28;20644;-74
2021/01/23 02:52:16;;;;;;;0.80;0.75;;;6.70;99.90;;;;;;5043242;28;20178;-71
2021/01/23 02:55:00;;;;;;;0.80;0.80;;;6.70;99.90;;;;;;5045890;28;20177;-71
2021/01/23 02:57:26;;;;;;;0.13;0.13;;;6.70;99.90;;;;;;5046996;28;20174;-73
2021/01/23 02:59:58;;;;;;;0.35;0.35;;;6.80;99.90;;;;;;5031207;28;20189;-71
2021/01/23 03:02:25;;;;;;;1.00;0.95;;;6.70;99.90;;;;;;5031792;28;20182;-73
2021/01/23 03:04:52;;;;;;;0.10;0.10;;;6.60;99.90;;;;;;5046717;28;20174;-73
2021/01/23 03:07:18;;;;;;;1.25;1.25;;;6.60;99.90;;;;;;5046764;28;20174;-73
2021/01/23 03:09:44;;;;;;;0.28;0.28;;;6.60;99.90;;;;;;5031435;28;20168;-73
2021/01/23 03:12:11;;;;;;;0.50;0.50;;;6.70;99.90;;;;;;5031509;28;20162;-73
2021/01/23 03:14:37;;;;;;;0.25;0.25;;;6.70;99.90;;;;;;5031456;28;20197;-73
2021/01/23 03:17:04;;;;;;;0.15;0.15;;;6.80;99.90;;;;;;5031231;28;20191;-72
2021/01/23 03:19:30;;;;;;;0.13;0.13;;;6.70;99.90;;;;;;5031237;28;20182;-73
2021/01/23 03:21:56;;;;;;;0.50;0.50;;;6.50;99.90;;;;;;5031424;28;20224;-73
2021/01/23 03:24:22;;;;;;;0.95;0.95;;;6.40;99.90;;;;;;5046591;28;20229;-74
2021/01/23 03:26:49;;;;;;;0.10;0.10;;;6.30;99.90;;;;;;5031178;28;20190;-73
2021/01/23 03:29:16;;;;;;;0.17;0.17;;;6.10;99.90;;;;;;5031061;28;20334;-73
2021/01/23 03:31:43;;;;;;;0.55;0.55;;;6.00;99.90;;;;;;5031096;28;20257;-72
2021/01/23 03:34:08;;;;;;;0.85;0.85;;;6.00;99.90;;;;;;5031024;28;20174;-73
2021/01/23 03:36:35;;;;;;;0.30;0.30;;;5.90;99.90;;;;;;5030706;28;20190;-72
2021/01/23 03:39:06;;;;;;;0.52;0.52;;;5.70;99.90;;;;;;5046083;28;20177;-74
2021/01/23 03:41:33;;;;;;;0.05;0.05;;;5.70;99.90;;;;;;5030997;28;20154;-72
2021/01/23 03:44:00;;;;;;;0.20;0.20;;;5.70;99.90;;;;;;5030841;28;20209;-72
2021/01/23 03:46:26;;;;;;;0.85;0.85;;;5.70;99.90;;;;;;5030861;28;20186;-73
2021/01/23 03:48:52;;;;;;;0.55;0.55;;;5.60;99.90;;;;;;5030921;28;20217;-72
2021/01/23 03:51:18;;;;;;;0.38;0.38;;;5.60;99.90;;;;;;5030719;28;20214;-72
2021/01/23 03:53:43;;;;;;;0.52;0.52;;;5.50;99.90;;;;;;5045737;28;20174;-72
2021/01/23 03:56:09;;;;;;;0.10;0.10;;;5.60;99.90;;;;;;5030568;28;20557;-74
2021/01/23 03:58:35;;;;;;;0.20;0.20;;;5.80;99.90;;;;;;5030550;28;20274;-73
2021/01/23 04:01:05;;;;;;;0.30;0.30;;;5.80;99.90;;;;;;5030560;28;20190;-73
2021/01/23 04:03:31;;;;;;;0.20;0.20;;;5.70;99.90;;;;;;5030489;28;20154;-72
2021/01/23 04:05:56;;;;;;;1.30;1.27;;;5.60;99.90;;;;;;5044226;28;20217;-72
2021/01/23 04:08:22;;;;;;;0.35;0.35;;;5.60;99.90;;;;;;5030460;28;20163;-73
2021/01/23 04:10:48;;;;;;;0.50;0.50;;;5.70;99.90;;;;;;5030425;28;20240;-74
2021/01/23 04:13:14;;;;;;;0.20;0.20;;;5.70;99.90;;;;;;5030449;28;20595;-72
2021/01/23 04:15:40;;;;;;;1.55;1.45;;;5.70;99.90;;;;;;5045647;28;20225;-74
2021/01/23 04:18:06;;;;;;;2.92;1.30;;;5.70;99.90;;;;;;5045485;28;20178;-74
2021/01/23 04:20:32;;;;;;;0.98;0.45;;;5.80;99.90;;;;;;5029833;28;20233;-73
2021/01/23 04:22:59;;;;;;;0.10;0.10;;;5.80;99.90;;;;;;5030337;28;20155;-73
2021/01/23 04:25:25;;;;;;;0.28;0.28;;;5.70;99.90;;;;;;5045482;28;20197;-73
2021/01/23 04:27:51;;;;;;;1.38;1.27;;;5.80;99.90;;;;;;5030220;28;20170;-72
2021/01/23 04:30:17;;;;;;;0.30;0.30;;;5.80;99.90;;;;;;5029888;28;20158;-72
2021/01/23 04:32:43;;;;;;;0.20;0.20;;;5.80;99.90;;;;;;5029986;28;20185;-72
2021/01/23 04:35:11;;;;;;;0.40;0.40;;;5.60;99.90;;;;;;5028318;28;20198;-72
2021/01/23 04:37:40;;;;;;;1.23;0.98;;;5.50;99.90;;;;;;5030034;28;20159;-72
2021/01/23 04:40:08;;;;;;;0.03;0.03;;;5.50;99.90;;;;;;5044991;28;20205;-72
2021/01/23 04:42:35;;;;;;;0.10;0.10;;;5.50;99.90;;;;;;5028442;28;20690;-72
2021/01/23 04:45:01;;;;;;;1.27;1.10;;;5.40;99.90;;;;;;5029775;28;20197;-72
2021/01/23 04:47:27;;;;;;;0.57;0.57;;;5.40;99.90;;;;;;5029900;28;20158;-72
2021/01/23 04:49:53;;;;;;;0.95;0.95;;;5.60;99.90;;;;;;5029886;28;20166;-72
2021/01/23 04:52:19;;;;;;;0.10;0.10;;;5.50;99.90;;;;;;5029741;28;20167;-72
2021/01/23 04:54:45;;;;;;;0.38;0.38;;;5.40;99.90;;;;;;5028237;28;20170;-72
2021/01/23 04:57:11;;;;;;;1.50;0.95;;;5.20;99.90;;;;;;5029411;28;20261;-73
2021/01/23 04:59:37;;;;;;;0.10;0.10;;;5.10;99.90;;;;;;5029372;28;20189;-73
2021/01/23 05:02:20;;;;;;;0.80;0.77;;;5.10;99.90;;;;;;5029490;28;20211;-73
2021/01/23 05:04:58;;;;;;;0.10;0.10;;;5.10;99.90;;;;;;5029433;28;20221;-73
2021/01/23 05:07:32;;;;;;;0.15;0.15;;;5.00;99.90;;;;;;5029354;28;20150;-73
2021/01/23 05:10:11;;;;;;;0.10;0.10;;;5.10;99.90;;;;;;5044372;28;20193;-72
2021/01/23 05:12:42;;;;;;;0.70;0.70;;;5.10;99.90;;;;;;5029165;28;20176;-72
2021/01/23 05:15:19;;;;;;;0.10;0.10;;;5.10;99.90;;;;;;5029049;28;20226;-72
2021/01/23 05:18:00;;;;;;;0.30;0.30;;;5.20;99.90;;;;;;5029004;28;20188;-73
2021/01/23 05:20:42;;;;;;;0.10;0.10;;;5.20;99.90;;;;;;5043834;28;20213;-73
2021/01/23 05:23:14;;;;;;;0.13;0.13;;;5.20;99.90;;;;;;5029145;28;20188;-72
2021/01/23 05:25:43;;;;;;;0.10;0.10;;;5.00;99.90;;;;;;5028808;28;20186;-72
2021/01/23 05:28:11;;;;;;;2.45;0.60;;;4.90;99.90;;;;;;5028928;28;20163;-74
2021/01/23 05:30:45;;;;;;;0.20;0.20;;;4.90;99.90;;;;;;5028757;28;20633;-73
2021/01/23 05:33:16;;;;;;;0.10;0.10;;;5.10;99.90;;;;;;5029154;28;20499;-74
2021/01/23 05:35:44;;;;;;;0.10;0.10;;;5.10;99.90;;;;;;5043974;28;20204;-72
2021/01/23 05:38:25;;;;;;;0.10;0.10;;;5.00;99.90;;;;;;5044009;28;20178;-73
2021/01/23 05:41:10;;;;;;;0.10;0.10;;;4.90;99.90;;;;;;5028740;28;20192;-72
2021/01/23 05:43:40;;;;;;;0.20;0.20;;;4.80;99.90;;;;;;5043701;28;20260;-71
2021/01/23 05:46:12;;;;;;;0.52;0.52;;;4.70;99.90;;;;;;5028601;28;20194;-72
2021/01/23 05:48:47;;;;;;;0.10;0.10;;;4.80;99.90;;;;;;5028710;28;20166;-72
2021/01/23 05:51:15;;;;;;;0.00;0.00;;;4.80;99.90;;;;;;5043571;28;20199;-72
2021/01/23 05:53:42;;;;;;;0.30;0.30;;;4.70;99.90;;;;;;5028737;28;20158;-72
2021/01/23 05:56:08;;;;;;;0.03;0.03;;;4.60;99.90;;;;;;5043668;28;20198;-72
2021/01/23 05:58:36;;;;;;;0.10;0.10;;;4.70;99.90;;;;;;5028608;28;20177;-72
2021/01/23 06:01:07;;;;;;;0.03;0.03;;;4.60;99.90;;;;;;5043660;28;20732;-73
2021/01/23 06:03:39;;;;;;;0.35;0.35;;;4.60;99.90;;;;;;5028574;28;20524;-74
2021/01/23 06:06:05;;;;;;;0.55;0.55;;;4.50;99.90;;;;;;5028371;28;20185;-73
2021/01/23 06:08:44;;;;;;;0.50;0.50;;;4.70;99.90;;;;;;5028350;28;20162;-73
2021/01/23 06:11:37;;;;;;;0.70;0.60;;;4.90;99.90;;;;;;5028469;28;20169;-74
2021/01/23 06:14:03;;;;;;;1.65;0.82;;;5.00;99.90;;;;;;5028272;28;20277;-72
2021/01/23 06:16:32;;;;;;;0.55;0.55;;;5.00;99.90;;;;;;5028439;28;20201;-73
2021/01/23 06:19:27;;;;;;;0.70;0.70;;;5.10;99.90;;;;;;5027975;28;20170;-73
2021/01/23 06:21:54;;;;;;;0.32;0.32;;;5.30;99.90;;;;;;5028023;28;20186;-73
2021/01/23 06:24:32;;;;;;;0.20;0.20;;;5.40;99.90;;;;;;5043669;28;20173;-73
2021/01/23 06:27:01;;;;;;;1.20;1.17;;;5.50;99.90;;;;;;5028275;28;20236;-73
2021/01/23 06:29:40;;;;;;;0.10;0.10;;;5.60;99.90;;;;;;5030409;28;20169;-73
2021/01/23 06:32:14;;;;;;;0.47;0.47;;;5.70;99.90;;;;;;5032396;28;20172;-73
2021/01/23 06:34:48;;;;;;;0.10;0.10;;;5.60;99.90;;;;;;5032452;28;20173;-74
2021/01/23 06:37:33;;;;;;;0.10;0.10;;;5.60;99.90;;;;;;5032307;28;20169;-71
2021/01/23 06:40:05;;;;;;;0.00;0.00;;;5.50;99.90;;;;;;5032143;28;20201;-74
2021/01/23 06:42:33;;;;;;;0.35;0.35;;;5.60;99.90;;;;;;5031947;28;20213;-73
2021/01/23 06:45:21;;;;;;;0.20;0.20;;;5.90;99.90;;;;;;5032029;28;20166;-74
2021/01/23 06:47:49;;;;;;;0.73;0.70;;;5.90;99.90;;;;;;5030684;28;20184;-73
2021/01/23 06:50:33;;;;;;;1.50;1.40;;;5.90;99.90;;;;;;5030633;28;20672;-72
2021/01/23 06:53:01;;;;;;;0.93;0.93;;;5.90;99.90;;;;;;5031786;28;20228;-71
2021/01/23 06:55:54;;;;;;;2.20;1.70;;;5.90;99.90;;;;;;5031821;28;20240;-73
2021/01/23 06:58:21;;;;;;;0.00;0.00;;;5.90;99.90;;;;;;5031479;28;20190;-73
2021/01/23 07:00:49;;;;;;;0.20;0.20;;;5.90;99.90;;;;;;5031519;28;20659;-72
2021/01/23 07:03:17;;;;;;;1.23;0.68;;;5.90;99.90;;;;;;5031408;28;20181;-72
2021/01/23 07:05:52;;;;;;;0.43;0.43;;;5.90;99.90;;;;;;5030127;28;20189;-73
2021/01/23 07:08:32;;;;;;;0.17;0.17;;;5.90;99.90;;;;;;5031211;28;20158;-73
2021/01/23 07:11:13;;;;;;;0.10;0.10;;;5.90;99.90;;;;;;5031401;28;20155;-72
2021/01/23 07:14:01;;;;;;;0.13;0.13;;;5.90;99.90;;;;;;5031292;28;20192;-73
2021/01/23 07:16:28;;;;;;;0.10;0.10;;;5.80;99.90;;;;;;5031028;28;20209;-73
2021/01/23 07:18:58;;;;;;;0.10;0.10;;;5.80;99.90;;;;;;5031109;28;20240;-73
2021/01/23 07:21:26;;;;;;;0.30;0.30;;;5.80;99.90;;;;;;5031345;28;20228;-73
2021/01/23 07:23:54;;;;;;;0.28;0.25;;;5.90;99.90;;;;;;5031273;28;20178;-73
2021/01/23 07:26:21;;;;;;;1.35;0.93;;;5.90;99.90;;;;;;5030938;28;20228;-73
2021/01/23 07:28:49;;;;;;;0.30;0.30;;;5.90;99.90;;;;;;5030890;28;20518;-73
2021/01/23 07:31:22;;;;;;;0.88;0.82;;;5.90;99.90;;;;;;5030852;28;20158;-73
2021/01/23 07:33:49;;;;;;;0.10;0.10;;;5.90;99.90;;;;;;5030956;28;20159;-73
2021/01/23 07:36:28;;;;;;;0.35;0.35;;;6.00;99.90;;;;;;5030866;28;20193;-73
2021/01/23 07:38:54;;;;;;;0.60;0.60;;;6.10;99.90;;;;;;5046114;28;20178;-73
2021/01/23 07:41:20;;;;;;;0.30;0.30;;;6.10;99.90;;;;;;5030837;28;20261;-73
2021/01/23 07:43:49;;;;;;;0.43;0.32;;;6.10;99.90;;;;;;5030747;28;20247;-73
2021/01/23 07:46:16;;;;;;;0.68;0.68;;;6.10;99.90;;;;;;5030619;28;20193;-73
2021/01/23 07:48:42;;;;;;;0.30;0.30;;;6.20;99.90;;;;;;5030784;28;20161;-73
2021/01/23 07:51:22;;;;;;;0.50;0.50;;;6.20;99.90;;;;;;5030337;28;20158;-73
2021/01/23 07:54:11;;;;;;;0.10;0.10;;;6.30;99.90;;;;;;5030506;28;20169;-72
2021/01/23 07:56:38;;;;;;;0.80;0.60;;;6.30;99.90;;;;;;5030388;28;20220;-73
2021/01/23 07:59:04;;;;;;;0.10;0.10;;;6.40;99.90;;;;;;5030232;28;20158;-73
2021/01/23 08:01:30;;;;;;;0.52;0.52;;;6.40;99.90;;;;;;5030242;28;20169;-73
2021/01/23 08:03:56;;;;;;;1.35;1.10;;;6.50;99.90;;;;;;5045542;28;20647;-73
2021/01/23 08:06:24;;;;;;;0.85;0.57;;;6.50;99.90;;;;;;5030237;28;20251;-73
2021/01/23 08:08:50;;;;;;;0.10;0.10;;;6.60;99.90;;;;;;5030105;28;20155;-73
2021/01/23 08:11:37;;;;;;;0.68;0.68;;;6.70;99.90;;;;;;5030132;28;20181;-73
2021/01/23 08:14:11;;;;;;;0.70;0.50;;;6.70;99.90;;;;;;5030291;28;20158;-73
2021/01/23 08:16:55;;;;;;;1.92;1.85;;;6.70;99.90;;;;;;5030334;28;20200;-73
2021/01/23 08:19:21;;;;;;;0.80;0.80;;;6.90;99.90;;;;;;5030044;28;20194;-73
2021/01/23 08:22:07;;;;;;;0.88;0.82;;;7.00;99.90;;;;;;5030211;28;20155;-73
2021/01/23 08:24:34;;;;;;;1.63;1.55;;;7.00;99.90;;;;;;5030177;28;20220;-73
2021/01/23 08:27:22;;;;;;;0.35;0.35;;;6.90;99.90;;;;;;5029861;28;20545;-73
2021/01/23 08:29:52;;;;;;;0.32;0.32;;;6.70;99.90;;;;;;5029978;28;20202;-73
2021/01/23 08:32:17;;;;;;;0.20;0.20;;;6.60;99.90;;;;;;5030051;28;20189;-72
2021/01/23 08:34:44;;;;;;;1.48;1.40;;;6.60;99.90;;;;;;5029878;28;20162;-73
2021/01/23 08:37:11;;;;;;;0.25;0.25;;;6.70;99.90;;;;;;5045394;28;20209;-72
2021/01/23 08:39:48;;;;;;;0.75;0.75;;;6.70;99.90;;;;;;5030110;28;20217;-72
2021/01/23 08:42:15;;;;;;;0.15;0.15;;;6.70;99.90;;;;;;5029655;28;20223;-74
2021/01/23 08:44:41;;;;;;;0.00;0.00;;;6.80;99.90;;;;;;5044890;28;20649;-74
2021/01/23 08:47:07;;;;;;;0.17;0.17;;;6.80;99.90;;;;;;5029805;28;20189;-73
2021/01/23 08:49:33;;;;;;;0.77;0.77;;;6.90;99.90;;;;;;5030010;28;20627;-73
2021/01/23 08:52:00;;;;;;;0.03;0.03;;;7.00;99.90;;;;;;5029058;28;20400;-73
2021/01/23 08:54:26;;;;;;;0.35;0.35;;;6.90;99.90;;;;;;5029600;28;20170;-73
2021/01/23 08:56:52;;;;;;;0.20;0.20;;;6.90;99.90;;;;;;5029525;28;20240;-73
2021/01/23 08:59:18;;;;;;;0.20;0.20;;;7.00;99.90;;;;;;5044468;28;20177;-73
2021/01/23 09:01:44;;;;;;;0.70;0.70;;;7.10;99.90;;;;;;5044604;28;20281;-73
2021/01/23 09:04:10;;;;;;;0.28;0.28;;;7.20;99.90;;;;;;5029373;28;20219;-73
2021/01/23 09:06:36;;;;;;;0.45;0.45;;;7.30;99.90;;;;;;5044783;28;20177;-73
2021/01/23 09:09:03;;;;;;;0.10;0.10;;;7.30;99.90;;;;;;5029293;28;20162;-73
2021/01/23 09:11:29;;;;;;;0.40;0.40;;;7.40;99.90;;;;;;5028985;28;20221;-74
2021/01/23 09:13:56;;;;;;;0.50;0.35;;;7.50;99.90;;;;;;5029244;28;20169;-73
2021/01/23 09:16:22;;;;;;;0.35;0.35;;;7.40;99.90;;;;;;5028020;28;20182;-73
2021/01/23 09:18:48;;;;;;;0.57;0.57;;;7.50;99.90;;;;;;5028909;28;20158;-74
2021/01/23 09:21:17;;;;;;;0.13;0.13;;;7.50;99.90;;;;;;5029486;28;20214;-72
2021/01/23 09:23:43;;;;;;;0.43;0.43;;;7.50;99.90;;;;;;5027287;28;20194;-73
2021/01/23 09:26:08;;;;;;;0.43;0.32;;;7.40;99.90;;;;;;5028654;28;20170;-72
2021/01/23 09:28:34;;;;;;;0.20;0.20;;;7.30;99.90;;;;;;5028916;28;20304;-72
2021/01/23 09:31:00;;;;;;;0.15;0.15;;;7.50;99.90;;;;;;5025872;28;20178;-74
2021/01/23 09:33:26;;;;;;;0.10;0.10;;;7.70;99.90;;;;;;5020122;28;20181;-74
2021/01/23 09:35:52;;;;;;;0.60;0.60;;;7.80;99.90;;;;;;5026975;28;20170;-74
2021/01/23 09:38:18;;;;;;;0.52;0.52;;;7.80;99.90;;;;;;5010668;28;20166;-73
2021/01/23 09:40:44;;;;;;;1.20;0.98;;;7.80;99.90;;;;;;5010251;28;20187;-73
2021/01/23 09:43:10;;;;;;;0.22;0.22;;;7.90;99.90;;;;;;5027856;28;20224;-73
2021/01/23 09:45:37;;;;;;;0.10;0.10;;;7.80;99.90;;;;;;5028390;28;20168;-73
2021/01/23 09:48:03;;;;;;;0.10;0.10;;;7.90;99.90;;;;;;5028140;28;20159;-73
2021/01/23 09:50:29;;;;;;;0.08;0.08;;;7.90;99.90;;;;;;5023327;28;20198;-73
2021/01/23 09:52:56;;;;;;;0.20;0.20;;;8.00;99.90;;;;;;5008564;28;20178;-73
2021/01/23 09:55:22;;;;;;;0.00;0.00;;;8.10;99.90;;;;;;5023372;28;20273;-73
2021/01/23 09:57:48;;;;;;;0.43;0.43;;;8.00;99.90;;;;;;5024802;28;20171;-73
2021/01/23 10:00:15;;;;;;;1.00;1.00;;;7.90;99.90;;;;;;5027952;28;20190;-74
2021/01/23 10:02:41;;;;;;;0.10;0.10;;;7.90;99.90;;;;;;5015487;28;20188;-73
2021/01/23 10:05:08;;;;;;;0.60;0.60;;;8.00;99.90;;;;;;5041056;28;20245;-74
2021/01/23 10:07:34;;;;;;;0.00;0.00;;;8.00;99.90;;;;;;5023014;28;20173;-72
2021/01/23 10:10:00;;;;;;;0.20;0.20;;;8.10;99.90;;;;;;5008334;28;20159;-68
2021/01/23 10:12:28;;;;;;;0.10;0.10;;;8.10;99.90;;;;;;5008440;28;20182;-68
2021/01/23 10:14:54;;;;;;;0.10;0.10;;;8.00;99.90;;;;;;5023328;28;20202;-69
2021/01/23 10:17:20;;;;;;;0.70;0.63;;;8.10;99.90;;;;;;5023349;28;20537;-69
2021/01/23 10:19:46;;;;;;;0.20;0.20;;;8.20;99.90;;;;;;5028160;28;20190;-68
2021/01/23 10:22:12;;;;;;;0.00;0.00;;;8.10;99.90;;;;;;5027939;28;20167;-68
2021/01/23 10:24:38;;;;;;;0.15;0.15;;;8.00;99.90;;;;;;5027977;28;20220;-69
2021/01/23 10:27:04;;;;;;;0.10;0.10;;;8.10;99.90;;;;;;5043000;28;20608;-68
2021/01/23 10:29:30;;;;;;;0.20;0.20;;;8.30;99.90;;;;;;5026479;28;20174;-69
2021/01/23 10:31:56;;;;;;;0.10;0.10;;;8.30;99.90;;;;;;5027553;28;20178;-69
2021/01/23 10:34:22;;;;;;;0.40;0.40;;;8.30;99.90;;;;;;5027678;28;20198;-68
2021/01/23 10:36:49;;;;;;;0.10;0.10;;;8.40;99.90;;;;;;5026168;28;20196;-69
2021/01/23 10:39:15;;;;;;;0.08;0.08;;;8.50;99.90;;;;;;5027632;28;20162;-68
2021/01/23 10:41:40;;;;;;;0.10;0.10;;;8.50;99.90;;;;;;5027417;28;20587;-68
2021/01/23 10:44:06;;;;;;;0.20;0.20;;;8.60;99.90;;;;;;5027511;28;20194;-68
2021/01/23 10:46:32;;;;;;;0.55;0.55;;;8.60;99.90;;;;;;5027520;28;20216;-67
2021/01/23 10:48:58;;;;;;;0.10;0.10;;;8.70;99.90;;;;;;5027636;28;20178;-67
2021/01/23 10:51:24;;;;;;;0.20;0.20;;;8.70;99.90;;;;;;5026206;28;20581;-67
2021/01/23 10:53:50;;;;;;;0.93;0.82;;;8.70;99.90;;;;;;5027369;28;20224;-68
2021/01/23 10:56:15;;;;;;;0.10;0.10;;;8.90;99.90;;;;;;5022733;28;20253;-67
2021/01/23 10:58:42;;;;;;;0.10;0.10;;;9.00;99.90;;;;;;5007876;28;20254;-67
2021/01/23 11:01:08;;;;;;;0.10;0.10;;;8.90;99.90;;;;;;5007743;28;20186;-67
2021/01/23 11:03:34;;;;;;;0.80;0.73;;;9.00;99.90;;;;;;5020541;28;20197;-67
2021/01/23 11:06:00;;;;;;;0.77;0.77;;;9.10;99.90;;;;;;5042480;28;20479;-68
2021/01/23 11:08:26;;;;;;;0.10;0.10;;;9.10;99.90;;;;;;5008516;28;20193;-68
2021/01/23 11:10:53;;;;;;;1.25;1.10;;;9.00;99.90;;;;;;5019690;28;20237;-68
2021/01/23 11:13:19;;;;;;;0.10;0.10;;;9.00;99.90;;;;;;5025913;28;20181;-68
2021/01/23 11:15:45;;;;;;;0.17;0.17;;;9.10;99.90;;;;;;5030019;28;20212;-67
2021/01/23 11:18:11;;;;;;;0.10;0.10;;;9.10;99.90;;;;;;5046123;28;20190;-67
2021/01/23 11:20:37;;;;;;;0.22;0.22;;;9.10;99.90;;;;;;5045946;28;20267;-68
2021/01/23 11:23:03;;;;;;;0.22;0.22;;;9.10;99.90;;;;;;5045821;28;20229;-68
2021/01/23 11:25:29;;;;;;;0.20;0.20;;;9.00;99.90;;;;;;5031102;28;20209;-69
2021/01/23 11:27:55;;;;;;;0.32;0.32;;;8.90;99.90;;;;;;5030789;28;20619;-69
2021/01/23 11:30:25;;;;;;;1.00;0.68;;;8.80;99.90;;;;;;5028947;28;20174;-68
2021/01/23 11:32:52;;;;;;;3.17;1.08;;;8.80;99.90;;;;;;5030803;28;20245;-69
2021/01/23 11:35:18;;;;;;;0.20;0.20;;;8.70;99.90;;;;;;5046060;28;20193;-69
2021/01/23 11:37:44;;;;;;;1.20;1.20;;;8.60;99.90;;;;;;5030774;28;20222;-68
2021/01/23 11:40:10;;;;;;;0.00;0.00;;;8.50;99.90;;;;;;5045798;28;20228;-67
2021/01/23 11:42:36;;;;;;;0.17;0.17;;;8.40;99.90;;;;;;5030213;28;20248;-67
2021/01/23 11:45:05;;;;;;;0.65;0.65;;;8.30;99.90;;;;;;5030101;28;20194;-67
2021/01/23 11:47:31;;;;;;;0.10;0.10;;;8.40;99.90;;;;;;5030713;28;20154;-69
2021/01/23 11:49:57;;;;;;;0.15;0.15;;;8.50;99.90;;;;;;5045615;28;20265;-69
2021/01/23 11:52:23;;;;;;;0.57;0.55;;;8.60;99.90;;;;;;5030374;28;20181;-69
2021/01/23 11:54:49;;;;;;;0.45;0.45;;;8.40;99.90;;;;;;5030059;28;20191;-67
2021/01/23 11:57:14;;;;;;;2.10;1.48;;;8.10;99.90;;;;;;5016850;28;20187;-70
2021/01/23 11:59:41;;;;;;;0.17;0.17;;;8.10;99.90;;;;;;5025400;28;20202;-69
2021/01/23 12:02:07;;;;;;;0.75;0.75;;;8.00;99.90;;;;;;5011522;28;20151;-68
2021/01/23 12:04:33;;;;;;;0.20;0.20;;;8.10;99.90;;;;;;5029925;28;20190;-68
2021/01/23 12:06:59;;;;;;;0.20;0.20;;;8.10;99.90;;;;;;5029919;28;20246;-68
2021/01/23 12:09:27;;;;;;;0.38;0.38;;;8.10;99.90;;;;;;5029848;28;20181;-69
2021/01/23 12:11:53;;;;;;;4.95;1.60;;;8.20;99.90;;;;;;5028509;28;20216;-68
2021/01/23 12:14:19;;;;;;;0.15;0.15;;;8.20;99.90;;;;;;5028398;28;20202;-68
2021/01/23 12:16:45;;;;;;;0.10;0.10;;;8.10;99.90;;;;;;5029812;28;20166;-68
2021/01/23 12:19:10;;;;;;;0.45;0.45;;;7.90;99.90;;;;;;5028474;28;20174;-69
2021/01/23 12:21:36;;;;;;;0.20;0.20;;;7.80;99.90;;;;;;5029627;28;20162;-69
2021/01/23 12:24:02;;;;;;;0.52;0.52;;;7.80;99.90;;;;;;5028233;28;20198;-69
2021/01/23 12:26:28;;;;;;;0.43;0.43;;;7.70;99.90;;;;;;5028688;28;20189;-69
2021/01/23 12:28:54;;;;;;;0.10;0.10;;;7.60;99.90;;;;;;5029789;28;20165;-69
2021/01/23 12:31:21;;;;;;;1.05;1.05;;;7.50;99.90;;;;;;5029812;28;20304;-69
2021/01/23 12:33:46;;;;;;;0.20;0.20;;;7.40;99.90;;;;;;5028276;28;20260;-69
2021/01/23 12:36:13;;;;;;;0.10;0.10;;;7.20;99.90;;;;;;5029777;28;20650;-68
2021/01/23 12:38:39;;;;;;;0.05;0.05;;;7.00;99.90;;;;;;5029444;28;20201;-68
2021/01/23 12:41:05;;;;;;;0.00;0.00;;;6.70;99.90;;;;;;5027994;28;20220;-69
2021/01/23 12:43:32;;;;;;;0.00;0.00;;;6.50;99.90;;;;;;5029224;28;20223;-69
2021/01/23 12:45:58;;;;;;;0.05;0.05;;;6.40;99.90;;;;;;5029816;28;20584;-68
2021/01/23 12:48:24;;;;;;;0.10;0.10;;;6.30;99.90;;;;;;5028552;28;20186;-68
2021/01/23 12:50:50;;;;;;;0.10;0.10;;;6.20;99.90;;;;;;5030045;28;20189;-68
2021/01/23 12:53:17;;;;;;;0.10;0.10;;;6.00;99.90;;;;;;5045218;28;20174;-69
2021/01/23 12:55:44;;;;;;;0.10;0.10;;;5.90;99.90;;;;;;5030106;28;20168;-68
2021/01/23 12:58:15;;;;;;;0.20;0.20;;;5.90;99.90;;;;;;5025502;28;20166;-68
2021/01/23 13:00:41;;;;;;;0.10;0.10;;;5.80;99.90;;;;;;5028437;28;20193;-68
2021/01/23 13:03:07;;;;;;;0.10;0.10;;;5.80;99.90;;;;;;5030013;28;20169;-71
2021/01/23 13:05:33;;;;;;;0.10;0.10;;;5.70;99.90;;;;;;5029827;28;20204;-68
2021/01/23 13:08:00;;;;;;;0.10;0.10;;;5.60;99.90;;;;;;5025954;28;20178;-68